Time;durP1;ratioP1;P1;durP2;ratioP2;P2;SDS_P1;SDS_P2;PMS_P1;PMS_P2;Temp;Humidity;BMP_temperature;BMP_pressure;BME280_temperature;BME280_humidity;BME280_pressure;Samples;Min_cycle;Max_cycle;Signal;HPM_P1;HPM_P2
2023/08/14 00:02:04;;;;;;;12.27;9.30;;;;;;;;;;6244773;28;20022;-81
2023/08/14 00:05:04;;;;;;;;;;;;;;;;;;6242160;28;20018;-82
2023/08/14 00:08:05;;;;;;;12.52;9.07;;;;;;;;;;6227884;28;19959;-81
2023/08/14 00:11:05;;;;;;;13.23;9.20;;;;;;;;;;6246529;28;20101;-82
2023/08/14 00:14:05;;;;;;;11.17;9.53;;;;;;;;;;6246287;28;20021;-81
2023/08/14 00:17:05;;;;;;;13.15;9.05;;;;;;;;;;6228668;28;20033;-82
2023/08/14 00:20:06;;;;;;;19.97;11.37;;;;;;;;;;6228918;28;20586;-82
2023/08/14 00:23:06;;;;;;;13.73;10.63;;;;;;;;;;6245675;28;20045;-82
2023/08/14 00:26:06;;;;;;;12.95;9.70;;;;;;;;;;6246755;28;20482;-82
2023/08/14 00:29:06;;;;;;;14.67;9.50;;;;;;;;;;6249069;28;20037;-82
2023/08/14 00:32:07;;;;;;;15.20;10.20;;;;;;;;;;6228604;28;20061;-81
2023/08/14 00:35:08;;;;;;;12.97;9.50;;;;;;;;;;6246723;28;20034;-81
2023/08/14 00:38:08;;;;;;;14.85;10.60;;;;;;;;;;6246289;28;20025;-81
2023/08/14 00:41:08;;;;;;;15.33;9.50;;;;;;;;;;6246322;28;20377;-82
2023/08/14 00:44:08;;;;;;;14.53;10.93;;;;;;;;;;6245505;28;20768;-82
2023/08/14 00:47:09;;;;;;;12.77;9.20;;;;;;;;;;6245930;28;20035;-82
2023/08/14 00:50:09;;;;;;;16.77;10.83;;;;;;;;;;6227598;28;20069;-82
2023/08/14 00:53:11;;;;;;;12.05;10.40;;;;;;;;;;6245792;28;20115;-82
2023/08/14 00:56:11;;;;;;;14.52;10.65;;;;;;;;;;6242913;28;20024;-83
2023/08/14 00:59:11;;;;;;;16.90;10.27;;;;;;;;;;6245199;28;20087;-82
2023/08/14 01:02:12;;;;;;;15.52;10.32;;;;;;;;;;6232349;28;20013;-82
2023/08/14 01:05:12;;;;;;;15.10;10.38;;;;;;;;;;6246021;28;20680;-82
2023/08/14 01:08:13;;;;;;;15.27;12.53;;;;;;;;;;6245708;28;20447;-82
2023/08/14 01:11:26;;;;;;;16.60;11.77;;;;;;;;;;6251365;28;20060;-82
2023/08/14 01:14:29;;;;;;;16.02;11.38;;;;;;;;;;6241228;28;20483;-88
2023/08/14 01:17:31;;;;;;;15.05;11.13;;;;;;;;;;6244069;28;20443;-82
2023/08/14 01:20:32;;;;;;;12.57;9.95;;;;;;;;;;6244391;28;20033;-81
2023/08/14 01:23:40;;;;;;;17.15;11.63;;;;;;;;;;6245075;28;20767;-81
2023/08/14 01:26:40;;;;;;;15.82;11.15;;;;;;;;;;6245231;28;20043;-81
2023/08/14 01:29:41;;;;;;;13.17;10.67;;;;;;;;;;6248305;28;20014;-81
2023/08/14 01:32:42;;;;;;;15.20;11.05;;;;;;;;;;6244980;28;20021;-81
2023/08/14 01:35:43;;;;;;;13.03;10.03;;;;;;;;;;6245838;28;20112;-81
2023/08/14 01:39:10;;;;;;;13.88;10.88;;;;;;;;;;6244570;28;20423;-80
2023/08/14 01:42:24;;;;;;;13.27;10.27;;;;;;;;;;6242210;28;20037;-81
2023/08/14 01:45:26;;;;;;;13.77;10.93;;;;;;;;;;6242139;28;20488;-81
2023/08/14 01:48:27;;;;;;;14.27;10.98;;;;;;;;;;6243707;28;20164;-82
2023/08/14 01:51:28;;;;;;;15.55;11.77;;;;;;;;;;6234553;28;20033;-81
2023/08/14 01:54:28;;;;;;;14.80;12.63;;;;;;;;;;6242363;28;20099;-81
2023/08/14 01:57:29;;;;;;;14.82;10.98;;;;;;;;;;6228017;28;20399;-81
2023/08/14 02:00:33;;;;;;;15.70;11.45;;;;;;;;;;6250797;28;20132;-81
2023/08/14 02:03:34;;;;;;;17.42;11.18;;;;;;;;;;6248827;28;20022;-80
2023/08/14 02:06:34;;;;;;;16.67;13.27;;;;;;;;;;6243897;28;20486;-81
2023/08/14 02:09:34;;;;;;;20.37;13.13;;;;;;;;;;6243790;28;20096;-81
2023/08/14 02:12:34;;;;;;;17.10;12.18;;;;;;;;;;6224448;28;20046;-81
2023/08/14 02:15:34;;;;;;;17.13;11.07;;;;;;;;;;6244642;28;20032;-81
2023/08/14 02:18:35;;;;;;;18.87;11.07;;;;;;;;;;6244901;28;20057;-81
2023/08/14 02:21:35;;;;;;;14.70;11.53;;;;;;;;;;6249841;28;20036;-81
2023/08/14 02:24:35;;;;;;;15.07;11.88;;;;;;;;;;6249683;28;20025;-81
2023/08/14 02:27:37;;;;;;;12.73;9.52;;;;;;;;;;6244581;28;20533;-81
2023/08/14 02:30:38;;;;;;;13.05;10.73;;;;;;;;;;6225176;28;20087;-81
2023/08/14 02:33:38;;;;;;;17.52;11.65;;;;;;;;;;6243420;28;20033;-81
2023/08/14 02:36:38;;;;;;;14.10;10.67;;;;;;;;;;6243215;28;20032;-81
2023/08/14 02:39:39;;;;;;;19.65;11.55;;;;;;;;;;6242842;28;20030;-81
2023/08/14 02:42:39;;;;;;;17.87;12.30;;;;;;;;;;6243280;28;20017;-81
2023/08/14 02:45:39;;;;;;;15.33;10.37;;;;;;;;;;6248622;28;20033;-81
2023/08/14 02:48:40;;;;;;;14.23;10.87;;;;;;;;;;6227791;28;20053;-81
2023/08/14 02:51:40;;;;;;;18.00;11.53;;;;;;;;;;6242508;28;20068;-81
2023/08/14 02:54:40;;;;;;;13.10;10.20;;;;;;;;;;6242712;28;20029;-81
2023/08/14 02:57:41;;;;;;;14.10;12.03;;;;;;;;;;6242282;28;20057;-82
2023/08/14 03:00:41;;;;;;;17.83;12.37;;;;;;;;;;6229133;28;20044;-81
2023/08/14 03:03:41;;;;;;;15.30;10.83;;;;;;;;;;6204762;28;20025;-81
2023/08/14 03:06:41;;;;;;;14.27;10.53;;;;;;;;;;6242732;28;20064;-81
2023/08/14 03:09:41;;;;;;;14.07;10.27;;;;;;;;;;6246783;28;20017;-81
2023/08/14 03:12:42;;;;;;;14.73;10.17;;;;;;;;;;6225034;28;20026;-81
2023/08/14 03:15:42;;;;;;;13.73;10.10;;;;;;;;;;6224635;28;20081;-80
2023/08/14 03:18:44;;;;;;;14.00;11.15;;;;;;;;;;6242751;28;20096;-82
2023/08/14 03:21:44;;;;;;;21.88;12.85;;;;;;;;;;6241424;28;20484;-81
2023/08/14 03:24:45;;;;;;;14.80;11.57;;;;;;;;;;6238614;28;20072;-82
2023/08/14 03:27:46;;;;;;;15.17;10.60;;;;;;;;;;6245641;28;20113;-81
2023/08/14 03:30:48;;;;;;;12.52;9.77;;;;;;;;;;6242605;28;20029;-81
2023/08/14 03:33:48;;;;;;;17.30;12.52;;;;;;;;;;6237936;28;20021;-81
2023/08/14 03:36:48;;;;;;;12.97;10.00;;;;;;;;;;6242977;28;20055;-81
2023/08/14 03:39:48;;;;;;;15.50;10.27;;;;;;;;;;6242822;28;20467;-81
2023/08/14 03:42:48;;;;;;;15.37;11.13;;;;;;;;;;6247433;28;20105;-81
2023/08/14 03:45:51;;;;;;;17.37;11.17;;;;;;;;;;6252052;28;20811;-81
2023/08/14 03:48:51;;;;;;;13.88;10.15;;;;;;;;;;6228619;28;20046;-81
2023/08/14 03:51:51;;;;;;;18.03;12.17;;;;;;;;;;6247645;28;20025;-81
2023/08/14 03:54:51;;;;;;;14.83;11.80;;;;;;;;;;6225201;28;20057;-81
2023/08/14 03:57:52;;;;;;;15.45;10.85;;;;;;;;;;6245057;28;20056;-81
2023/08/14 04:00:52;;;;;;;16.63;10.85;;;;;;;;;;6244785;28;20022;-81
2023/08/14 04:03:52;;;;;;;15.43;11.23;;;;;;;;;;6248768;28;20506;-81
2023/08/14 04:06:52;;;;;;;15.30;12.00;;;;;;;;;;6246303;28;20029;-81
2023/08/14 04:09:52;;;;;;;14.13;10.70;;;;;;;;;;6245388;28;20021;-81
2023/08/14 04:12:53;;;;;;;14.70;11.37;;;;;;;;;;6228829;28;20847;-81
2023/08/14 04:15:59;;;;;;;14.90;10.60;;;;;;;;;;6256461;28;20072;-81
2023/08/14 04:18:59;;;;;;;13.13;9.52;;;;;;;;;;6247012;28;20040;-82
2023/08/14 04:22:00;;;;;;;15.83;10.90;;;;;;;;;;6228288;28;20033;-83
2023/08/14 04:25:00;;;;;;;18.00;11.37;;;;;;;;;;6250666;28;20023;-82
2023/08/14 04:28:00;;;;;;;14.50;11.50;;;;;;;;;;6257323;28;20021;-82
2023/08/14 04:31:00;;;;;;;14.27;11.48;;;;;;;;;;6250594;28;20095;-82
2023/08/14 04:34:01;;;;;;;16.00;11.73;;;;;;;;;;6247038;28;20018;-82
2023/08/14 04:37:01;;;;;;;17.07;11.57;;;;;;;;;;6225389;28;20517;-82
2023/08/14 04:40:02;;;;;;;12.43;10.57;;;;;;;;;;6245649;28;20072;-82
2023/08/14 04:43:02;;;;;;;15.07;10.27;;;;;;;;;;6250479;28;20012;-82
2023/08/14 04:46:10;;;;;;;13.75;10.00;;;;;;;;;;6243985;28;20013;-82
2023/08/14 04:49:10;;;;;;;12.15;9.45;;;;;;;;;;6245438;28;20049;-79
2023/08/14 04:52:10;;;;;;;12.15;9.52;;;;;;;;;;6245378;28;20112;-79
2023/08/14 04:55:11;;;;;;;12.45;9.73;;;;;;;;;;6245573;28;20024;-80
2023/08/14 04:58:11;;;;;;;16.13;9.07;;;;;;;;;;6246221;28;20076;-82
2023/08/14 05:01:11;;;;;;;14.57;9.77;;;;;;;;;;6229575;28;20495;-82
2023/08/14 05:04:12;;;;;;;12.73;9.07;;;;;;;;;;6227722;28;20021;-82
2023/08/14 05:07:12;;;;;;;13.17;9.30;;;;;;;;;;6227676;28;20476;-82
2023/08/14 05:10:12;;;;;;;11.27;9.50;;;;;;;;;;6245261;28;20014;-80
2023/08/14 05:13:14;;;;;;;11.02;8.38;;;;;;;;;;6248011;28;20022;-80
2023/08/14 05:16:14;;;;;;;;;;;;;;;;;;6245816;28;20017;-80
2023/08/14 05:19:14;;;;;;;10.48;8.00;;;;;;;;;;6245239;28;20268;-81
2023/08/14 05:22:14;;;;;;;9.67;7.97;;;;;;;;;;6256757;28;20032;-81
2023/08/14 05:25:14;;;;;;;12.77;7.23;;;;;;;;;;6223228;28;20029;-81
2023/08/14 05:28:14;;;;;;;10.30;6.93;;;;;;;;;;6227961;28;20017;-82
2023/08/14 05:31:15;;;;;;;10.50;7.07;;;;;;;;;;6227410;28;20104;-82
2023/08/14 05:34:15;;;;;;;11.60;7.43;;;;;;;;;;6244537;28;20029;-81
2023/08/14 05:37:15;;;;;;;11.53;6.97;;;;;;;;;;6227232;28;20067;-81
2023/08/14 05:40:18;;;;;;;10.05;6.28;;;;;;;;;;6247232;28;20057;-81
2023/08/14 05:43:18;;;;;;;9.35;6.45;;;;;;;;;;6253393;28;20101;-81
2023/08/14 05:46:19;;;;;;;10.55;7.00;;;;;;;;;;6250665;28;20033;-81
2023/08/14 05:49:19;;;;;;;9.53;7.03;;;;;;;;;;6251179;28;20046;-81
2023/08/14 05:52:20;;;;;;;8.17;6.47;;;;;;;;;;6221341;28;20272;-81
2023/08/14 05:55:20;;;;;;;9.52;6.32;;;;;;;;;;6244483;28;20029;-81
2023/08/14 05:58:20;;;;;;;11.10;6.93;;;;;;;;;;6243958;28;20072;-81
2023/08/14 06:01:20;;;;;;;8.95;5.88;;;;;;;;;;6244899;28;20072;-81
2023/08/14 06:04:21;;;;;;;7.60;6.57;;;;;;;;;;6241419;28;20027;-82
2023/08/14 06:07:21;;;;;;;;;;;;;;;;;;6226579;28;20014;-78
2023/08/14 06:10:21;;;;;;;9.38;6.20;;;;;;;;;;6243127;28;20343;-77
2023/08/14 06:13:21;;;;;;;;;;;;;;;;;;6242940;28;20021;-77
2023/08/14 06:16:21;;;;;;;7.95;6.15;;;;;;;;;;6245160;28;19909;-77
2023/08/14 06:19:22;;;;;;;;;;;;;;;;;;6244235;28;20112;-77
2023/08/14 06:22:22;;;;;;;9.45;6.65;;;;;;;;;;6243684;28;20007;-77
2023/08/14 06:25:22;;;;;;;;;;;;;;;;;;6241676;28;20018;-77
2023/08/14 06:28:22;;;;;;;7.22;5.60;;;;;;;;;;6243065;28;19909;-77
2023/08/14 06:31:23;;;;;;;7.03;5.85;;;;;;;;;;6225235;28;20033;-77
2023/08/14 06:34:23;;;;;;;8.63;4.83;;;;;;;;;;6240800;28;20026;-77
2023/08/14 06:37:24;;;;;;;9.70;5.95;;;;;;;;;;6243695;28;20083;-77
2023/08/14 06:40:24;;;;;;;7.73;4.90;;;;;;;;;;6219983;28;20029;-77
2023/08/14 06:43:24;;;;;;;8.87;5.03;;;;;;;;;;6244468;28;20024;-77
2023/08/14 06:46:24;;;;;;;8.30;5.00;;;;;;;;;;6241977;28;20034;-77
2023/08/14 06:49:24;;;;;;;7.38;4.57;;;;;;;;;;6224696;28;20044;-77
2023/08/14 06:52:25;;;;;;;6.67;4.63;;;;;;;;;;6224606;28;20021;-78
2023/08/14 06:55:25;;;;;;;8.35;4.35;;;;;;;;;;6246923;28;20487;-77
2023/08/14 06:58:27;;;;;;;8.30;4.87;;;;;;;;;;6242730;28;20029;-77
2023/08/14 07:01:27;;;;;;;9.20;4.55;;;;;;;;;;6243808;28;20448;-77
2023/08/14 07:04:27;;;;;;;7.30;4.53;;;;;;;;;;6242588;28;20037;-77
2023/08/14 07:07:28;;;;;;;7.03;4.80;;;;;;;;;;6244745;28;20044;-77
2023/08/14 07:10:28;;;;;;;7.40;3.80;;;;;;;;;;6242415;28;20023;-77
2023/08/14 07:13:28;;;;;;;5.60;3.80;;;;;;;;;;6241323;28;20392;-77
2023/08/14 07:16:28;;;;;;;4.90;4.10;;;;;;;;;;6242232;28;20024;-77
2023/08/14 07:19:28;;;;;;;5.67;4.03;;;;;;;;;;6223648;28;20033;-77
2023/08/14 07:22:29;;;;;;;7.07;4.40;;;;;;;;;;6224576;28;20014;-77
2023/08/14 07:25:29;;;;;;;8.80;4.25;;;;;;;;;;6242217;28;20376;-77
2023/08/14 07:28:29;;;;;;;4.20;3.50;;;;;;;;;;6241203;28;20025;-77
2023/08/14 07:31:30;;;;;;;6.93;3.83;;;;;;;;;;6226529;28;20021;-77
2023/08/14 07:34:30;;;;;;;7.47;3.60;;;;;;;;;;6242141;28;20040;-77
2023/08/14 07:37:30;;;;;;;8.10;5.53;;;;;;;;;;6224460;28;20064;-77
2023/08/14 07:40:30;;;;;;;8.37;5.77;;;;;;;;;;6241598;28;20029;-77
2023/08/14 07:43:30;;;;;;;6.78;4.25;;;;;;;;;;6242682;28;20024;-77
2023/08/14 07:46:31;;;;;;;6.93;4.47;;;;;;;;;;6240501;28;20549;-77
2023/08/14 07:49:32;;;;;;;8.27;4.30;;;;;;;;;;6245389;28;20118;-76
2023/08/14 07:52:34;;;;;;;4.13;3.72;;;;;;;;;;6241333;28;20140;-76
2023/08/14 07:55:34;;;;;;;7.28;3.80;;;;;;;;;;6247991;28;20480;-76
2023/08/14 07:58:34;;;;;;;7.40;3.60;;;;;;;;;;6241722;28;20017;-76
2023/08/14 08:01:35;;;;;;;5.93;4.07;;;;;;;;;;6241137;28;20061;-76
2023/08/14 08:04:36;;;;;;;5.50;3.40;;;;;;;;;;6243191;28;20032;-76
2023/08/14 08:07:36;;;;;;;6.32;3.65;;;;;;;;;;6221774;28;20026;-76
2023/08/14 08:10:36;;;;;;;6.67;3.43;;;;;;;;;;6227612;28;20092;-76
2023/08/14 08:13:37;;;;;;;8.23;4.07;;;;;;;;;;6242297;28;20025;-76
2023/08/14 08:16:37;;;;;;;6.20;3.83;;;;;;;;;;6242670;28;20036;-76
2023/08/14 08:19:37;;;;;;;7.82;4.05;;;;;;;;;;6240839;28;20540;-77
2023/08/14 08:22:37;;;;;;;6.15;3.53;;;;;;;;;;6240603;28;20017;-77
2023/08/14 08:25:37;;;;;;;;;;;;;;;;;;6249192;28;20030;-77
2023/08/14 08:28:38;;;;;;;7.97;3.88;;;;;;;;;;6245752;28;19941;-80
2023/08/14 08:31:38;;;;;;;5.13;3.47;;;;;;;;;;6246711;28;20018;-80
2023/08/14 08:34:38;;;;;;;6.03;4.10;;;;;;;;;;6248209;28;20025;-81
2023/08/14 08:37:38;;;;;;;4.93;3.35;;;;;;;;;;6246725;28;20013;-76
2023/08/14 08:40:41;;;;;;;5.37;3.87;;;;;;;;;;6245909;28;20518;-76
2023/08/14 08:43:44;;;;;;;4.28;3.13;;;;;;;;;;6246195;28;20036;-76
2023/08/14 08:46:48;;;;;;;4.40;2.90;;;;;;;;;;6244838;28;20483;-79
2023/08/14 08:49:48;;;;;;;4.18;2.75;;;;;;;;;;6245863;28;20444;-79
2023/08/14 08:52:49;;;;;;;4.13;2.87;;;;;;;;;;6245315;28;20014;-80
2023/08/14 08:55:50;;;;;;;3.63;2.58;;;;;;;;;;6245070;28;20100;-79
2023/08/14 08:58:51;;;;;;;5.25;3.35;;;;;;;;;;6245663;28;20029;-79
2023/08/14 09:01:52;;;;;;;7.32;3.58;;;;;;;;;;6246786;28;20033;-80
2023/08/14 09:04:52;;;;;;;6.22;3.30;;;;;;;;;;6225005;28;20022;-80
2023/08/14 09:07:54;;;;;;;4.27;3.20;;;;;;;;;;6240125;28;20072;-80
2023/08/14 09:10:54;;;;;;;5.85;3.10;;;;;;;;;;6243769;28;20318;-80
2023/08/14 09:13:54;;;;;;;4.80;2.67;;;;;;;;;;6246896;28;20053;-81
2023/08/14 09:16:58;;;;;;;6.72;3.45;;;;;;;;;;6250650;28;20383;-80
2023/08/14 09:19:58;;;;;;;5.55;3.13;;;;;;;;;;6244180;28;20071;-79
2023/08/14 09:22:58;;;;;;;3.60;2.43;;;;;;;;;;6249645;28;20013;-79
2023/08/14 09:25:59;;;;;;;3.87;2.90;;;;;;;;;;6226593;28;20264;-79
2023/08/14 09:28:59;;;;;;;6.30;3.80;;;;;;;;;;6227336;28;20302;-79
2023/08/14 09:32:00;;;;;;;6.65;3.05;;;;;;;;;;6241980;28;20053;-79
2023/08/14 09:35:01;;;;;;;5.15;2.90;;;;;;;;;;6244372;28;20032;-79
2023/08/14 09:38:02;;;;;;;5.10;3.20;;;;;;;;;;6244508;28;20095;-79
2023/08/14 09:41:03;;;;;;;6.13;3.15;;;;;;;;;;6243052;28;20104;-79
2023/08/14 09:44:03;;;;;;;4.35;3.20;;;;;;;;;;6246193;28;20016;-79
2023/08/14 09:47:04;;;;;;;5.82;2.70;;;;;;;;;;6224663;28;20067;-80
2023/08/14 09:50:06;;;;;;;5.45;3.50;;;;;;;;;;6244565;28;20049;-80
2023/08/14 09:53:06;;;;;;;5.53;3.35;;;;;;;;;;6242821;28;20426;-79
2023/08/14 09:56:06;;;;;;;5.20;3.30;;;;;;;;;;6243330;28;20095;-80
2023/08/14 09:59:06;;;;;;;0.07;0.03;;;;;;;;;;6243684;28;20543;-80
2023/08/14 10:02:11;;;;;;;5.10;3.72;;;;;;;;;;6244234;28;20088;-80
2023/08/14 10:05:12;;;;;;;27.98;26.20;;;;;;;;;;6242560;28;20454;-80
2023/08/14 10:08:13;;;;;;;31.92;30.05;;;;;;;;;;6243136;28;20025;-80
2023/08/14 10:11:13;;;;;;;34.80;32.53;;;;;;;;;;6221646;28;20083;-80
2023/08/14 10:14:14;;;;;;;32.97;31.02;;;;;;;;;;6244229;28;20033;-80
2023/08/14 10:17:18;;;;;;;23.98;22.45;;;;;;;;;;6243925;28;20045;-79
2023/08/14 10:20:21;;;;;;;26.13;24.35;;;;;;;;;;6245448;28;20025;-81
2023/08/14 10:23:22;;;;;;;6.50;5.88;;;;;;;;;;6227685;28;20029;-80
2023/08/14 10:26:22;;;;;;;5.00;4.50;;;;;;;;;;6245749;28;20029;-81
2023/08/14 10:29:23;;;;;;;5.57;2.73;;;;;;;;;;6239008;28;20021;-80
2023/08/14 10:32:23;;;;;;;3.38;2.03;;;;;;;;;;6248830;28;20279;-80
2023/08/14 10:35:25;;;;;;;2.80;2.00;;;;;;;;;;6244977;28;20399;-81
2023/08/14 10:38:38;;;;;;;4.20;2.03;;;;;;;;;;6236923;28;20067;-81
2023/08/14 10:41:38;;;;;;;4.00;2.83;;;;;;;;;;6234898;28;20403;-81
2023/08/14 10:44:42;;;;;;;4.27;2.17;;;;;;;;;;6239131;28;20017;-80
2023/08/14 10:47:44;;;;;;;3.25;2.22;;;;;;;;;;6230688;28;20071;-80
2023/08/14 10:50:56;;;;;;;3.40;2.30;;;;;;;;;;6236220;28;20037;-81
2023/08/14 10:54:15;;;;;;;12.48;11.60;;;;;;;;;;6223607;28;20546;-81
2023/08/14 10:57:15;;;;;;;0.10;0.10;;;;;;;;;;6237331;28;20059;-81
2023/08/14 11:00:21;;;;;;;0.00;0.00;;;;;;;;;;6237521;28;20033;-80
2023/08/14 11:03:21;;;;;;;0.00;0.00;;;;;;;;;;6237198;28;20120;-80
2023/08/14 11:06:24;;;;;;;0.00;0.00;;;;;;;;;;6237623;28;20025;-80
2023/08/14 11:09:34;;;;;;;0.00;0.00;;;;;;;;;;6242652;28;20025;-80
2023/08/14 11:12:35;;;;;;;0.00;0.00;;;;;;;;;;6241349;28;20042;-80
2023/08/14 11:15:36;;;;;;;0.00;0.00;;;;;;;;;;6242240;28;20033;-80
2023/08/14 11:18:37;;;;;;;0.00;0.00;;;;;;;;;;6224353;28;20550;-80
2023/08/14 11:21:37;;;;;;;0.00;0.00;;;;;;;;;;6243866;28;20021;-81
2023/08/14 11:24:39;;;;;;;0.00;0.00;;;;;;;;;;6235506;28;20029;-79
2023/08/14 11:27:40;;;;;;;0.00;0.00;;;;;;;;;;6235727;28;20129;-80
2023/08/14 11:30:40;;;;;;;0.00;0.00;;;;;;;;;;6242187;28;20153;-81
2023/08/14 11:33:40;;;;;;;0.00;0.00;;;;;;;;;;6240848;28;20032;-79
2023/08/14 11:36:57;;;;;;;0.00;0.00;;;;;;;;;;6241893;28;20442;-79
2023/08/14 11:40:04;;;;;;;0.00;0.00;;;;;;;;;;6242113;28;20057;-80
2023/08/14 11:43:04;;;;;;;0.00;0.00;;;;;;;;;;6242491;28;20030;-80
2023/08/14 11:46:05;;;;;;;0.00;0.00;;;;;;;;;;6220915;28;20025;-80
2023/08/14 11:49:05;;;;;;;0.00;0.00;;;;;;;;;;6242028;28;20507;-80
2023/08/14 11:52:06;;;;;;;0.00;0.00;;;;;;;;;;6240999;28;20049;-81
2023/08/14 11:55:06;;;;;;;0.00;0.00;;;;;;;;;;6223566;28;20013;-81
2023/08/14 11:58:06;;;;;;;0.00;0.00;;;;;;;;;;6241475;28;20264;-81
2023/08/14 12:01:08;;;;;;;0.00;0.00;;;;;;;;;;6241875;28;20026;-81
2023/08/14 12:04:08;;;;;;;0.00;0.00;;;;;;;;;;6245334;28;20030;-79
2023/08/14 12:07:08;;;;;;;0.00;0.00;;;;;;;;;;6246711;28;20100;-81
2023/08/14 12:10:09;;;;;;;0.00;0.00;;;;;;;;;;6244556;28;20276;-81
2023/08/14 12:13:09;;;;;;;0.00;0.00;;;;;;;;;;6228879;28;20037;-81
2023/08/14 12:16:10;;;;;;;0.00;0.00;;;;;;;;;;6246452;28;20086;-80
2023/08/14 12:19:11;;;;;;;0.00;0.00;;;;;;;;;;6246887;28;20025;-80
2023/08/14 12:22:11;;;;;;;0.00;0.00;;;;;;;;;;6245051;28;20104;-81
2023/08/14 12:25:17;;;;;;;0.00;0.00;;;;;;;;;;6246027;28;20482;-81
2023/08/14 12:28:18;;;;;;;0.00;0.00;;;;;;;;;;6246889;28;20464;-81
2023/08/14 12:31:18;;;;;;;0.00;0.00;;;;;;;;;;6227268;28;20060;-80
2023/08/14 12:34:21;;;;;;;0.00;0.00;;;;;;;;;;6246434;28;20496;-81
2023/08/14 12:37:21;;;;;;;0.00;0.00;;;;;;;;;;6246225;28;20040;-81
2023/08/14 12:40:21;;;;;;;0.00;0.00;;;;;;;;;;6245771;28;20021;-81
2023/08/14 12:43:21;;;;;;;0.00;0.00;;;;;;;;;;6246216;28;20067;-79
2023/08/14 12:46:23;;;;;;;0.00;0.00;;;;;;;;;;6251223;28;20264;-81
2023/08/14 12:49:24;;;;;;;0.00;0.00;;;;;;;;;;6246218;28;20726;-80
2023/08/14 12:52:24;;;;;;;0.00;0.00;;;;;;;;;;6245488;28;20026;-81
2023/08/14 12:55:24;;;;;;;0.00;0.00;;;;;;;;;;6227734;28;20033;-81
2023/08/14 12:58:25;;;;;;;0.00;0.00;;;;;;;;;;6245240;28;20260;-81
2023/08/14 13:01:25;;;;;;;0.00;0.00;;;;;;;;;;6245623;28;20053;-82
2023/08/14 13:04:25;;;;;;;0.00;0.00;;;;;;;;;;6241463;28;20586;-81
2023/08/14 13:07:27;;;;;;;0.00;0.00;;;;;;;;;;6245625;28;20075;-81
2023/08/14 13:10:27;;;;;;;0.00;0.00;;;;;;;;;;6245221;28;20117;-81
2023/08/14 13:13:29;;;;;;;0.00;0.00;;;;;;;;;;6244916;28;20482;-82
2023/08/14 13:16:29;;;;;;;0.00;0.00;;;;;;;;;;6240432;28;20049;-82
2023/08/14 13:19:29;;;;;;;0.00;0.00;;;;;;;;;;6243841;28;20083;-82
2023/08/14 13:22:30;;;;;;;0.00;0.00;;;;;;;;;;6241148;28;20021;-82
2023/08/14 13:25:30;;;;;;;0.00;0.00;;;;;;;;;;6242485;28;20029;-80
2023/08/14 13:28:32;;;;;;;0.00;0.00;;;;;;;;;;6248252;28;20080;-80
2023/08/14 13:31:32;;;;;;;0.00;0.00;;;;;;;;;;6226191;28;20043;-80
2023/08/14 13:34:32;;;;;;;0.00;0.00;;;;;;;;;;6243732;28;20041;-80
2023/08/14 13:37:32;;;;;;;0.00;0.00;;;;;;;;;;6244880;28;20030;-82
2023/08/14 13:40:33;;;;;;;0.00;0.00;;;;;;;;;;6244100;28;20104;-81
2023/08/14 13:43:33;;;;;;;0.00;0.00;;;;;;;;;;6243786;28;20026;-81
2023/08/14 13:46:33;;;;;;;0.00;0.00;;;;;;;;;;6225903;28;20029;-81
2023/08/14 13:49:33;;;;;;;0.00;0.00;;;;;;;;;;6244147;28;20299;-81
2023/08/14 13:52:34;;;;;;;0.00;0.00;;;;;;;;;;6226311;28;20108;-82
2023/08/14 13:55:34;;;;;;;0.00;0.00;;;;;;;;;;6244372;28;20025;-81
2023/08/14 13:58:34;;;;;;;0.00;0.00;;;;;;;;;;6243938;28;20108;-81
2023/08/14 14:01:34;;;;;;;0.00;0.00;;;;;;;;;;6240638;28;20065;-81
2023/08/14 14:04:35;;;;;;;0.00;0.00;;;;;;;;;;6226215;28;20024;-80
2023/08/14 14:07:35;;;;;;;0.00;0.00;;;;;;;;;;6242326;28;20093;-82
2023/08/14 14:10:35;;;;;;;0.00;0.00;;;;;;;;;;6244050;28;20026;-82
2023/08/14 14:13:35;;;;;;;0.00;0.00;;;;;;;;;;6244508;28;20192;-81
2023/08/14 14:16:54;;;;;;;0.00;0.00;;;;;;;;;;6243934;28;20033;-82
2023/08/14 14:19:55;;;;;;;0.00;0.00;;;;;;;;;;6239440;28;20014;-82
2023/08/14 14:22:56;;;;;;;0.00;0.00;;;;;;;;;;6243269;28;20029;-81
2023/08/14 14:25:56;;;;;;;0.00;0.00;;;;;;;;;;6242141;28;20052;-82
2023/08/14 14:28:56;;;;;;;0.00;0.00;;;;;;;;;;6239807;28;20025;-82
2023/08/14 14:31:57;;;;;;;0.00;0.00;;;;;;;;;;6222619;28;20025;-83
2023/08/14 14:34:57;;;;;;;0.00;0.00;;;;;;;;;;6238926;28;20104;-81
2023/08/14 14:37:58;;;;;;;0.00;0.00;;;;;;;;;;6237542;28;20033;-82
2023/08/14 14:40:58;;;;;;;0.00;0.00;;;;;;;;;;6247690;28;20132;-82
2023/08/14 14:43:58;;;;;;;0.00;0.00;;;;;;;;;;6244475;28;20039;-83
2023/08/14 14:46:59;;;;;;;0.00;0.00;;;;;;;;;;6217850;28;20025;-84
2023/08/14 14:49:59;;;;;;;0.00;0.00;;;;;;;;;;6239007;28;20389;-82
2023/08/14 14:53:00;;;;;;;0.00;0.00;;;;;;;;;;6242889;28;20014;-82
2023/08/14 14:56:00;;;;;;;0.00;0.00;;;;;;;;;;6242623;28;20520;-82
2023/08/14 14:59:00;;;;;;;0.00;0.00;;;;;;;;;;6248266;28;20025;-82
2023/08/14 15:02:00;;;;;;;0.00;0.00;;;;;;;;;;6244306;28;20038;-82
2023/08/14 15:05:01;;;;;;;0.00;0.00;;;;;;;;;;6242013;28;20025;-82
2023/08/14 15:08:01;;;;;;;0.00;0.00;;;;;;;;;;6242467;28;20021;-82
2023/08/14 15:11:01;;;;;;;0.00;0.00;;;;;;;;;;6248468;28;20033;-82
2023/08/14 15:14:02;;;;;;;0.00;0.00;;;;;;;;;;6246048;28;20046;-83
2023/08/14 15:17:03;;;;;;;0.00;0.00;;;;;;;;;;6224708;28;20369;-82
2023/08/14 15:20:04;;;;;;;0.00;0.00;;;;;;;;;;6242830;28;20108;-83
2023/08/14 15:23:04;;;;;;;0.00;0.00;;;;;;;;;;6242609;28;20045;-82
2023/08/14 15:26:04;;;;;;;0.00;0.00;;;;;;;;;;6238944;28;20030;-83
2023/08/14 15:29:04;;;;;;;0.00;0.00;;;;;;;;;;6249156;28;20475;-82
2023/08/14 15:32:05;;;;;;;0.00;0.00;;;;;;;;;;6246930;28;20025;-82
2023/08/14 15:35:05;;;;;;;0.00;0.00;;;;;;;;;;6242096;28;20028;-83
2023/08/14 15:38:05;;;;;;;0.00;0.00;;;;;;;;;;6241104;28;20064;-83
2023/08/14 15:41:11;;;;;;;0.00;0.00;;;;;;;;;;6239912;28;20064;-82
2023/08/14 15:44:11;;;;;;;0.00;0.00;;;;;;;;;;6244771;28;20146;-83
2023/08/14 15:47:12;;;;;;;0.00;0.00;;;;;;;;;;6240908;28;20029;-74
2023/08/14 15:50:12;;;;;;;0.00;0.00;;;;;;;;;;6244178;28;20038;-74
2023/08/14 15:53:12;;;;;;;0.00;0.00;;;;;;;;;;6242132;28;20017;-74
2023/08/14 15:56:12;;;;;;;0.00;0.00;;;;;;;;;;6241104;28;20268;-74
2023/08/14 15:59:13;;;;;;;0.00;0.00;;;;;;;;;;6241033;28;20017;-74
2023/08/14 16:02:13;;;;;;;0.00;0.00;;;;;;;;;;6243092;28;20041;-74
2023/08/14 16:05:13;;;;;;;0.00;0.00;;;;;;;;;;6242219;28;20006;-73
2023/08/14 16:08:14;;;;;;;0.00;0.00;;;;;;;;;;6241494;28;20283;-74
2023/08/14 16:11:14;;;;;;;0.00;0.00;;;;;;;;;;6241438;28;20025;-74
2023/08/14 16:14:14;;;;;;;0.00;0.00;;;;;;;;;;6241936;28;20061;-74
2023/08/14 16:17:14;;;;;;;0.00;0.00;;;;;;;;;;6218287;28;20797;-75
2023/08/14 16:20:14;;;;;;;0.00;0.00;;;;;;;;;;6245047;28;20056;-74
2023/08/14 16:23:15;;;;;;;0.00;0.00;;;;;;;;;;6241774;28;20029;-74
2023/08/14 16:26:15;;;;;;;0.00;0.00;;;;;;;;;;6241879;28;20515;-74
2023/08/14 16:29:15;;;;;;;0.00;0.00;;;;;;;;;;6222832;28;20407;-73
2023/08/14 16:32:15;;;;;;;0.00;0.00;;;;;;;;;;6241451;28;20032;-74
2023/08/14 16:35:16;;;;;;;0.00;0.00;;;;;;;;;;6243274;28;20029;-74
2023/08/14 16:38:17;;;;;;;0.00;0.00;;;;;;;;;;6242159;28;20025;-76
2023/08/14 16:41:18;;;;;;;0.00;0.00;;;;;;;;;;6240632;28;20034;-76
2023/08/14 16:44:20;;;;;;;0.00;0.00;;;;;;;;;;6241493;28;20065;-76
2023/08/14 16:47:20;;;;;;;0.00;0.00;;;;;;;;;;6241627;28;20080;-75
2023/08/14 16:50:20;;;;;;;0.00;0.00;;;;;;;;;;6226510;28;20124;-75
2023/08/14 16:53:20;;;;;;;0.00;0.00;;;;;;;;;;6246080;28;20029;-75
2023/08/14 16:56:21;;;;;;;0.00;0.00;;;;;;;;;;6245729;28;20108;-75
2023/08/14 16:59:21;;;;;;;0.00;0.00;;;;;;;;;;6249190;28;20083;-75
2023/08/14 17:02:21;;;;;;;0.00;0.00;;;;;;;;;;6245942;28;20476;-74
2023/08/14 17:05:23;;;;;;;0.00;0.00;;;;;;;;;;6245789;28;20365;-75
2023/08/14 17:08:23;;;;;;;0.00;0.00;;;;;;;;;;6227460;28;20044;-75
2023/08/14 17:11:25;;;;;;;0.00;0.00;;;;;;;;;;6244491;28;20045;-75
2023/08/14 17:14:26;;;;;;;0.00;0.00;;;;;;;;;;6241604;28;20523;-75
2023/08/14 17:17:30;;;;;;;0.00;0.00;;;;;;;;;;6247816;28;20013;-75
2023/08/14 17:20:31;;;;;;;0.00;0.00;;;;;;;;;;6243630;28;20092;-75
2023/08/14 17:23:31;;;;;;;0.00;0.00;;;;;;;;;;6243310;28;20036;-75
2023/08/14 17:26:31;;;;;;;0.00;0.00;;;;;;;;;;6244691;28;20025;-74
2023/08/14 17:29:34;;;;;;;0.00;0.00;;;;;;;;;;6245651;28;20022;-74
2023/08/14 17:32:35;;;;;;;0.00;0.00;;;;;;;;;;6245553;28;20029;-74
2023/08/14 17:35:35;;;;;;;0.00;0.00;;;;;;;;;;6247484;28;20021;-75
2023/08/14 17:38:35;;;;;;;0.00;0.00;;;;;;;;;;6246055;28;20578;-75
2023/08/14 17:41:35;;;;;;;0.00;0.00;;;;;;;;;;6244390;28;20021;-74
2023/08/14 17:44:35;;;;;;;0.00;0.00;;;;;;;;;;6243544;28;20888;-75
2023/08/14 17:47:36;;;;;;;0.00;0.00;;;;;;;;;;6244167;28;20026;-75
2023/08/14 17:50:36;;;;;;;0.00;0.00;;;;;;;;;;6243504;28;20052;-75
2023/08/14 17:53:36;;;;;;;0.00;0.00;;;;;;;;;;6240461;28;20025;-75
2023/08/14 17:56:36;;;;;;;;;;;;;;;;;;6244718;28;20802;-75
2023/08/14 17:59:36;;;;;;;0.00;0.00;;;;;;;;;;6225399;28;19909;-74